Weather at Dr. Mariano Moreno Heliport

Public forecast

Using degrees Celsius for public forecast. Weather courtesy of forecast.io.

Closest aviation weather report (METAR) to Dr. Mariano Moreno Heliport

Closest report is San Fernando Airport, 11.9 nm (22.1 km) ENE.

2024/05/29 09:00 (retrieved 23 minutes ago)

SADF 290900Z 05003KT 9999 OVC038 11/10 Q1024

Closest aviation forecast (TAF) to Dr. Mariano Moreno Heliport

Closest forecast is San Fernando Airport, 11.9 nm (22.1 km) ENE.

2024/05/29 09:09 Ammendment (retrieved 14 minutes ago)

TAF AMD SADF 290915Z 2909/3006 36010KT 9999 BKN030 TX16/2918Z TN10/2911Z PROB40 TEMPO 2909/2911 2000 BR BKN005 OVC030 BECMG 3004/3006 VRB03KT 4000 BR